Time;durP1;ratioP1;P1;durP2;ratioP2;P2;SDS_P1;SDS_P2;PMS_P1;PMS_P2;Temp;Humidity;BMP_temperature;BMP_pressure;BME280_temperature;BME280_humidity;BME280_pressure;Samples;Min_cycle;Max_cycle;Signal;HPM_P1;HPM_P2
2024/03/15 00:00:12;;;;;;;11.13;7.95;;;;;;;3.66;100.00;97942.75;6107015;19;20463;-71
2024/03/15 00:02:14;;;;;;;14.13;7.80;;;;;;;3.62;100.00;97939.88;6107503;19;20002;-71
2024/03/15 00:04:14;;;;;;;12.68;8.10;;;;;;;3.62;100.00;97928.94;6108318;19;19999;-71
2024/03/15 00:06:17;;;;;;;13.88;9.02;;;;;;;3.58;100.00;97939.00;6107745;19;19998;-71
2024/03/15 00:08:17;;;;;;;11.77;7.97;;;;;;;3.55;100.00;97933.41;6109273;19;20002;-71
2024/03/15 00:10:18;;;;;;;12.25;8.15;;;;;;;3.57;100.00;97929.19;6108416;19;20469;-71
2024/03/15 00:12:18;;;;;;;15.93;9.50;;;;;;;3.60;100.00;97933.19;6107167;19;20003;-71
2024/03/15 00:14:18;;;;;;;14.50;9.60;;;;;;;3.55;100.00;97934.19;6108815;19;19995;-71
2024/03/15 00:16:19;;;;;;;11.93;8.73;;;;;;;3.62;100.00;97936.34;6107753;19;20014;-71
2024/03/15 00:18:19;;;;;;;13.65;8.10;;;;;;;3.57;100.00;97937.41;6107601;19;20034;-71
2024/03/15 00:20:20;;;;;;;13.07;8.00;;;;;;;3.56;100.00;97935.81;6107714;19;20011;-71
2024/03/15 00:22:23;;;;;;;10.88;7.93;;;;;;;3.55;100.00;97923.25;6107104;19;20007;-71
2024/03/15 00:24:23;;;;;;;14.73;9.48;;;;;;;3.50;100.00;97931.72;6107724;19;20014;-71
2024/03/15 00:26:24;;;;;;;12.65;9.07;;;;;;;3.52;100.00;97934.09;6107370;19;20007;-71
2024/03/15 00:28:25;;;;;;;16.85;8.68;;;;;;;3.47;100.00;97934.31;6108432;19;20391;-71
2024/03/15 00:30:26;;;;;;;15.30;9.15;;;;;;;3.48;100.00;97914.06;6107722;19;20027;-71
2024/03/15 00:32:27;;;;;;;14.90;8.82;;;;;;;3.48;100.00;97925.00;6106363;19;20011;-71
2024/03/15 00:34:27;;;;;;;13.77;8.93;;;;;;;3.47;100.00;97913.25;6107186;19;20011;-71
2024/03/15 00:36:30;;;;;;;13.15;9.15;;;;;;;3.50;100.00;97912.56;6109002;19;20038;-71
2024/03/15 00:38:30;;;;;;;12.48;8.80;;;;;;;3.49;100.00;97915.66;6107743;19;20007;-71
2024/03/15 00:40:30;;;;;;;13.27;8.80;;;;;;;3.52;100.00;97923.16;6108158;19;20013;-71
2024/03/15 00:42:31;;;;;;;15.27;10.57;;;;;;;3.56;100.00;97908.47;6106599;19;20355;-71
2024/03/15 00:44:31;;;;;;;20.35;10.18;;;;;;;3.57;100.00;97928.41;6107700;19;20006;-71
2024/03/15 00:46:32;;;;;;;16.48;10.63;;;;;;;3.58;100.00;97913.59;6107556;19;20015;-71
2024/03/15 00:48:32;;;;;;;12.93;9.00;;;;;;;3.64;100.00;97914.91;6106906;19;20035;-71
2024/03/15 00:50:32;;;;;;;20.63;10.40;;;;;;;3.65;100.00;97911.06;6107342;19;20030;-71
2024/03/15 00:52:33;;;;;;;15.25;8.75;;;;;;;3.70;100.00;97913.53;6106053;19;20017;-71
2024/03/15 00:54:34;;;;;;;15.43;8.77;;;;;;;3.73;100.00;97912.06;6107012;19;20324;-71
2024/03/15 00:56:34;;;;;;;15.68;8.80;;;;;;;3.79;100.00;97907.91;6106482;19;20031;-71
2024/03/15 00:58:35;;;;;;;13.75;8.90;;;;;;;3.82;100.00;97909.97;6107230;19;20010;-71
2024/03/15 01:00:35;;;;;;;13.38;8.68;;;;;;;3.85;100.00;97906.53;6106704;19;20017;-71
2024/03/15 01:02:35;;;;;;;14.77;9.07;;;;;;;3.88;100.00;97901.16;6105913;19;20463;-71
2024/03/15 01:04:36;;;;;;;11.43;7.53;;;;;;;3.92;100.00;97904.00;6104940;19;20063;-71
2024/03/15 01:06:37;;;;;;;11.32;7.95;;;;;;;3.84;100.00;97902.22;6105703;19;20018;-71
2024/03/15 01:08:38;;;;;;;9.85;7.75;;;;;;;3.75;100.00;97904.31;6107272;19;20028;-71
2024/03/15 01:10:38;;;;;;;12.48;7.78;;;;;;;3.72;100.00;97889.34;6106897;19;20011;-71
2024/03/15 01:12:38;;;;;;;13.85;8.13;;;;;;;3.70;100.00;97891.66;6105033;19;20011;-71
2024/03/15 01:14:40;;;;;;;12.27;7.38;;;;;;;3.65;100.00;97894.66;6097396;19;20467;-71
2024/03/15 01:16:45;;;;;;;11.97;7.83;;;;;;;3.56;100.00;97889.31;6107566;19;20031;-71
2024/03/15 01:18:46;;;;;;;10.57;6.88;;;;;;;3.48;100.00;97887.50;6104759;19;20007;-71
2024/03/15 01:20:46;;;;;;;12.80;7.15;;;;;;;3.36;100.00;97885.59;6106638;19;20006;-71
2024/03/15 01:22:48;;;;;;;13.88;7.30;;;;;;;3.34;100.00;97878.88;6106769;19;20348;-71
2024/03/15 01:24:48;;;;;;;11.88;6.80;;;;;;;3.31;100.00;97883.09;6112185;19;20007;-71
2024/03/15 01:26:48;;;;;;;12.20;7.25;;;;;;;3.29;100.00;97885.38;6111400;19;20020;-71
2024/03/15 01:28:48;;;;;;;10.93;7.18;;;;;;;3.27;100.00;97884.91;6112658;19;20006;-71
2024/03/15 01:30:49;;;;;;;13.18;7.25;;;;;;;3.23;100.00;97883.22;6111555;19;20006;-71
2024/03/15 01:32:50;;;;;;;10.18;6.65;;;;;;;3.19;100.00;97883.09;6110530;19;20484;-71
2024/03/15 01:34:50;;;;;;;11.13;7.45;;;;;;;3.19;100.00;97879.56;6108948;19;20007;-71
2024/03/15 01:36:50;;;;;;;11.70;7.10;;;;;;;3.23;100.00;97881.28;6110453;19;20006;-71
2024/03/15 01:38:51;;;;;;;10.85;7.05;;;;;;;3.22;100.00;97882.41;6110416;19;20098;-71
2024/03/15 01:40:51;;;;;;;10.35;6.82;;;;;;;3.25;100.00;97875.47;6110774;19;20007;-71
2024/03/15 01:42:52;;;;;;;9.93;6.85;;;;;;;3.28;100.00;97872.03;6109361;19;20019;-71
2024/03/15 01:44:56;;;;;;;10.68;6.97;;;;;;;3.28;100.00;97867.38;6110989;19;20036;-71
2024/03/15 01:46:59;;;;;;;12.80;7.35;;;;;;;3.31;100.00;97868.59;6110397;19;20003;-71
2024/03/15 01:48:59;;;;;;;10.02;7.32;;;;;;;3.29;100.00;97868.97;6111209;19;20026;-71
2024/03/15 01:51:00;;;;;;;10.63;7.20;;;;;;;3.30;100.00;97875.22;6110694;19;20066;-71
2024/03/15 01:53:02;;;;;;;14.90;7.43;;;;;;;3.32;100.00;97872.97;6109675;19;20021;-71
2024/03/15 01:55:03;;;;;;;12.80;7.60;;;;;;;3.33;100.00;97861.69;6110793;19;20400;-71
2024/03/15 01:57:05;;;;;;;14.90;7.82;;;;;;;3.37;100.00;97865.28;6111976;19;20026;-71
2024/03/15 01:59:05;;;;;;;11.18;7.85;;;;;;;3.34;100.00;97855.06;6111653;19;20468;-71
2024/03/15 02:01:06;;;;;;;10.18;6.72;;;;;;;3.35;100.00;97858.59;6110257;19;20006;-71
2024/03/15 02:03:06;;;;;;;13.65;7.28;;;;;;;3.35;100.00;97861.31;6109774;19;20017;-71
2024/03/15 02:05:07;;;;;;;11.38;7.35;;;;;;;3.33;100.00;97844.47;6110955;19;20006;-71
2024/03/15 02:07:08;;;;;;;12.27;7.80;;;;;;;3.32;100.00;97848.34;6111344;19;20070;-71
2024/03/15 02:09:09;;;;;;;10.77;7.03;;;;;;;3.33;100.00;97853.47;6111958;19;20612;-71
2024/03/15 02:11:10;;;;;;;11.07;7.50;;;;;;;3.35;100.00;97839.44;6111289;19;20007;-71
2024/03/15 02:13:11;;;;;;;10.75;7.03;;;;;;;3.34;100.00;97838.66;6108549;19;20373;-71
2024/03/15 02:15:11;;;;;;;10.18;6.35;;;;;;;3.38;100.00;97838.75;6103984;19;20029;-71
2024/03/15 02:17:13;;;;;;;9.95;6.75;;;;;;;3.44;100.00;97844.78;6103070;19;20010;-71
2024/03/15 02:19:14;;;;;;;11.02;6.82;;;;;;;3.44;100.00;97845.56;6102982;19;20010;-71
2024/03/15 02:21:14;;;;;;;10.30;6.57;;;;;;;3.50;100.00;97846.13;6102111;19;20515;-71
2024/03/15 02:23:15;;;;;;;12.30;7.25;;;;;;;3.54;100.00;97844.28;6102492;19;20003;-71
2024/03/15 02:25:16;;;;;;;11.35;7.18;;;;;;;3.52;100.00;97839.16;6102279;19;20010;-71
2024/03/15 02:27:17;;;;;;;10.15;6.63;;;;;;;3.53;100.00;97848.97;6102848;19;20011;-71
2024/03/15 02:29:17;;;;;;;12.00;7.47;;;;;;;3.52;100.00;97847.38;6102427;19;20037;-71
2024/03/15 02:31:17;;;;;;;12.55;7.28;;;;;;;3.51;100.00;97853.19;6102354;19;20006;-71
2024/03/15 02:33:18;;;;;;;13.05;7.88;;;;;;;3.51;100.00;97853.19;6101547;19;20019;-71
2024/03/15 02:35:18;;;;;;;11.13;7.43;;;;;;;3.52;100.00;97852.03;6099961;19;20007;-71
2024/03/15 02:37:19;;;;;;;12.55;7.15;;;;;;;3.54;100.00;97849.75;6103015;19;20262;-71
2024/03/15 02:39:19;;;;;;;10.68;6.63;;;;;;;3.56;100.00;97839.28;6103186;19;20044;-71
2024/03/15 02:41:20;;;;;;;10.35;6.10;;;;;;;3.59;100.00;97836.63;6102310;19;20561;-71
2024/03/15 02:43:20;;;;;;;12.77;6.80;;;;;;;3.67;100.00;97834.91;6101576;19;20007;-71
2024/03/15 02:45:21;;;;;;;12.10;7.38;;;;;;;3.75;100.00;97844.09;6101486;19;20510;-71
2024/03/15 02:47:25;;;;;;;12.65;7.45;;;;;;;3.80;100.00;97843.84;6102053;19;20011;-71
2024/03/15 02:49:25;;;;;;;10.15;6.70;;;;;;;3.81;100.00;97843.50;6102074;19;20519;-71
2024/03/15 02:51:26;;;;;;;13.20;7.78;;;;;;;3.85;100.00;97844.41;6102996;19;20015;-71
2024/03/15 02:53:26;;;;;;;12.20;7.35;;;;;;;3.85;100.00;97838.13;6100440;19;20011;-71
2024/03/15 02:55:27;;;;;;;14.05;7.82;;;;;;;3.95;100.00;97837.63;6102307;19;20078;-71
2024/03/15 02:57:31;;;;;;;12.65;6.97;;;;;;;4.03;100.00;97839.41;6101862;19;20014;-71
2024/03/15 02:59:31;;;;;;;11.77;7.15;;;;;;;4.06;100.00;97837.91;6101972;19;20264;-71
2024/03/15 03:01:32;;;;;;;12.15;7.75;;;;;;;4.09;100.00;97839.94;6101418;19;20003;-71
2024/03/15 03:03:32;;;;;;;12.25;7.30;;;;;;;4.11;100.00;97841.19;6100233;19;20446;-71
2024/03/15 03:05:33;;;;;;;10.38;7.07;;;;;;;4.10;100.00;97838.78;6101702;19;20351;-71
2024/03/15 03:07:33;;;;;;;9.27;6.15;;;;;;;4.11;100.00;97832.97;6101641;19;20026;-71
2024/03/15 03:09:33;;;;;;;12.68;7.97;;;;;;;4.13;100.00;97838.88;6101149;19;20006;-71
2024/03/15 03:11:33;;;;;;;9.75;6.68;;;;;;;4.12;100.00;97831.81;6101605;19;20031;-71
2024/03/15 03:13:34;;;;;;;11.60;7.10;;;;;;;4.17;100.00;97839.00;6100554;19;20007;-71
2024/03/15 03:15:34;;;;;;;10.95;7.10;;;;;;;4.23;100.00;97837.59;6108880;19;20051;-71
2024/03/15 03:17:35;;;;;;;10.82;7.30;;;;;;;4.29;100.00;97840.84;6107634;19;20065;-71
2024/03/15 03:19:35;;;;;;;12.43;7.55;;;;;;;4.37;100.00;97835.19;6109020;19;20465;-71
2024/03/15 03:21:36;;;;;;;12.52;7.20;;;;;;;4.45;100.00;97836.19;6107727;19;20094;-71
2024/03/15 03:23:37;;;;;;;11.05;7.50;;;;;;;4.52;100.00;97839.09;6106964;19;20003;-71
2024/03/15 03:25:37;;;;;;;15.43;8.02;;;;;;;4.53;100.00;97834.41;6107577;19;20466;-71
2024/03/15 03:27:37;;;;;;;14.13;8.90;;;;;;;4.63;100.00;97836.59;6108552;19;20404;-71
2024/03/15 03:29:37;;;;;;;12.25;7.32;;;;;;;4.59;100.00;97836.53;6107042;19;20344;-71
2024/03/15 03:31:38;;;;;;;12.70;8.30;;;;;;;4.62;100.00;97835.03;6108325;19;19998;-71
2024/03/15 03:33:38;;;;;;;15.57;9.10;;;;;;;4.63;100.00;97834.66;6106433;19;19999;-71
2024/03/15 03:35:39;;;;;;;15.15;8.82;;;;;;;4.70;100.00;97834.84;6108098;19;20013;-71
2024/03/15 03:37:40;;;;;;;15.50;8.85;;;;;;;4.71;100.00;97846.59;6106968;19;20014;-71
2024/03/15 03:39:40;;;;;;;13.27;8.30;;;;;;;4.71;100.00;97841.13;6108480;19;20502;-71
2024/03/15 03:41:40;;;;;;;14.45;8.52;;;;;;;4.72;100.00;97842.72;6107483;19;20327;-71
2024/03/15 03:43:43;;;;;;;13.70;8.60;;;;;;;4.69;100.00;97830.50;6105699;19;20005;-71
2024/03/15 03:45:47;;;;;;;16.42;8.90;;;;;;;4.68;100.00;97847.31;6106185;19;20003;-71
2024/03/15 03:47:49;;;;;;;15.50;8.50;;;;;;;4.66;100.00;97835.91;6108946;19;20800;-71
2024/03/15 03:49:52;;;;;;;14.05;8.88;;;;;;;4.65;100.00;97835.13;6107008;19;20039;-71
2024/03/15 03:51:53;;;;;;;12.13;7.93;;;;;;;4.62;100.00;97837.75;6106429;19;20007;-71
2024/03/15 03:53:53;;;;;;;13.10;8.02;;;;;;;4.60;100.00;97840.06;6106714;19;20397;-71
2024/03/15 03:55:53;;;;;;;13.90;7.88;;;;;;;4.56;100.00;97834.50;6107838;19;20070;-71
2024/03/15 03:57:55;;;;;;;13.65;7.57;;;;;;;4.54;100.00;97839.53;6106057;19;20011;-71
2024/03/15 03:59:55;;;;;;;14.88;8.20;;;;;;;4.49;100.00;97839.81;6105558;19;20379;-71
2024/03/15 04:01:56;;;;;;;14.88;8.55;;;;;;;4.51;100.00;97843.00;6104896;19;20463;-71
2024/03/15 04:03:56;;;;;;;14.70;8.65;;;;;;;4.48;100.00;97833.53;6105176;19;20003;-71
2024/03/15 04:05:58;;;;;;;17.33;7.60;;;;;;;4.41;100.00;97836.09;6105601;19;20066;-71
2024/03/15 04:07:59;;;;;;;12.73;7.45;;;;;;;4.38;100.00;97831.31;6106431;19;20066;-71
2024/03/15 04:10:00;;;;;;;16.13;8.07;;;;;;;4.34;100.00;97833.19;6106232;19;20010;-71
2024/03/15 04:12:00;;;;;;;15.15;8.57;;;;;;;4.32;100.00;97838.22;6104339;19;20062;-71
2024/03/15 04:14:01;;;;;;;13.73;8.48;;;;;;;4.29;100.00;97833.44;6106048;19;20006;-70
2024/03/15 04:16:01;;;;;;;16.75;8.77;;;;;;;4.30;100.00;97834.22;6105667;19;20025;-71
2024/03/15 04:18:02;;;;;;;13.55;8.18;;;;;;;4.25;100.00;97838.03;6106534;19;20014;-71
2024/03/15 04:20:06;;;;;;;14.10;8.45;;;;;;;4.23;100.00;97829.38;6106579;19;20330;-71
2024/03/15 04:22:06;;;;;;;14.32;9.07;;;;;;;4.19;100.00;97825.72;6104593;19;20367;-71
2024/03/15 04:24:07;;;;;;;16.48;8.82;;;;;;;4.23;100.00;97829.38;6106483;19;20010;-71
2024/03/15 04:26:07;;;;;;;13.68;8.13;;;;;;;4.21;100.00;97829.69;6105426;19;20002;-71
2024/03/15 04:28:08;;;;;;;13.93;8.23;;;;;;;4.23;100.00;97838.38;6104977;19;20009;-71
2024/03/15 04:30:15;;;;;;;14.07;8.40;;;;;;;4.28;100.00;97831.03;6105466;19;20014;-71
2024/03/15 04:32:19;;;;;;;17.10;9.25;;;;;;;4.30;100.00;97836.97;6105444;19;20010;-71
2024/03/15 04:34:19;;;;;;;14.55;9.05;;;;;;;4.36;100.00;97841.03;6106324;19;20014;-71
2024/03/15 04:36:22;;;;;;;15.88;10.10;;;;;;;4.36;100.00;97841.81;6106513;19;20005;-71
2024/03/15 04:38:25;;;;;;;;;;;;;;;4.42;100.00;97845.91;6106773;19;19994;-71
2024/03/15 04:40:28;;;;;;;17.38;9.38;;;;;;;4.45;100.00;97838.91;6105866;19;19918;-71
2024/03/15 04:42:32;;;;;;;;;;;;;;;4.45;100.00;97836.19;6105030;19;20527;-71
2024/03/15 04:44:37;;;;;;;15.27;9.48;;;;;;;4.43;100.00;97839.28;6105908;19;20233;-71
2024/03/15 04:46:37;;;;;;;13.82;8.52;;;;;;;4.57;100.00;97841.59;6106735;19;20038;-71
2024/03/15 04:48:38;;;;;;;17.25;8.63;;;;;;;4.57;100.00;97838.03;6105871;19;20006;-71
2024/03/15 04:50:38;;;;;;;14.20;8.55;;;;;;;4.53;100.00;97831.66;6105916;19;20003;-71
2024/03/15 04:52:40;;;;;;;14.95;8.95;;;;;;;4.52;100.00;97825.41;6105323;19;20010;-71
2024/03/15 04:54:40;;;;;;;13.85;9.35;;;;;;;4.47;100.00;97821.00;6106710;19;20661;-71
2024/03/15 04:56:41;;;;;;;15.05;9.38;;;;;;;4.48;100.00;97827.28;6105673;19;20002;-71
2024/03/15 04:58:41;;;;;;;14.88;9.02;;;;;;;4.46;100.00;97835.03;6109393;19;20009;-71
2024/03/15 05:00:41;;;;;;;14.40;8.52;;;;;;;4.43;100.00;97833.00;6112177;19;20367;-71
2024/03/15 05:02:42;;;;;;;17.00;9.35;;;;;;;4.39;100.00;97824.72;6110372;19;20042;-71
2024/03/15 05:04:43;;;;;;;14.00;9.00;;;;;;;4.43;100.00;97838.47;6111399;19;20633;-71
2024/03/15 05:06:44;;;;;;;17.88;10.63;;;;;;;4.45;100.00;97838.91;6111385;19;20003;-70
2024/03/15 05:08:44;;;;;;;16.10;9.88;;;;;;;4.48;100.00;97840.97;6111422;19;19998;-70
2024/03/15 05:10:44;;;;;;;15.48;9.18;;;;;;;4.44;100.00;97840.84;6110859;19;20734;-71
2024/03/15 05:12:45;;;;;;;16.50;8.18;;;;;;;4.49;100.00;97840.59;6109104;19;20106;-71
2024/03/15 05:14:45;;;;;;;15.48;8.68;;;;;;;4.49;100.00;97837.06;6111411;19;20617;-71
2024/03/15 05:16:55;;;;;;;17.60;9.85;;;;;;;4.51;100.00;97838.31;6111725;19;20030;-71
2024/03/15 05:18:56;;;;;;;18.83;9.43;;;;;;;4.55;100.00;97838.41;6110802;19;20518;-71
2024/03/15 05:20:57;;;;;;;16.65;9.23;;;;;;;4.62;100.00;97830.34;6111276;19;20003;-71
2024/03/15 05:22:57;;;;;;;14.77;9.35;;;;;;;4.67;100.00;97834.75;6108914;19;20864;-71
2024/03/15 05:25:00;;;;;;;20.25;9.57;;;;;;;4.70;100.00;97828.56;6110346;19;20026;-71
2024/03/15 05:27:00;;;;;;;15.68;9.48;;;;;;;4.72;100.00;97832.56;6111242;19;20010;-71
2024/03/15 05:29:01;;;;;;;17.95;9.88;;;;;;;4.78;100.00;97830.31;6109870;19;20003;-71
2024/03/15 05:31:04;;;;;;;17.65;9.75;;;;;;;4.76;100.00;97827.16;6110003;19;20352;-71
2024/03/15 05:33:04;;;;;;;17.10;8.25;;;;;;;4.82;100.00;97824.94;6109378;19;20006;-70
2024/03/15 05:35:05;;;;;;;14.55;9.15;;;;;;;4.81;100.00;97832.38;6109702;19;20570;-71
2024/03/15 05:37:06;;;;;;;13.77;9.02;;;;;;;4.78;100.00;97831.13;6108148;19;20011;-71
2024/03/15 05:39:10;;;;;;;13.30;8.80;;;;;;;4.76;100.00;97830.69;6110512;19;20006;-71
2024/03/15 05:41:10;;;;;;;14.93;8.68;;;;;;;4.71;100.00;97830.16;6110023;19;20091;-71
2024/03/15 05:43:11;;;;;;;14.57;9.05;;;;;;;4.72;100.00;97820.81;6108782;19;20011;-71
2024/03/15 05:45:13;;;;;;;17.08;10.13;;;;;;;4.73;100.00;97830.63;6109159;19;20017;-71
2024/03/15 05:47:16;;;;;;;17.05;9.63;;;;;;;4.72;100.00;97829.81;6108407;19;20010;-71
2024/03/15 05:49:16;;;;;;;15.82;8.90;;;;;;;4.72;100.00;97838.03;6110629;19;20021;-71
2024/03/15 05:51:17;;;;;;;14.57;9.48;;;;;;;4.72;100.00;97829.81;6110146;19;20360;-71
2024/03/15 05:53:17;;;;;;;15.25;8.55;;;;;;;4.69;100.00;97830.50;6109005;19;20021;-71
2024/03/15 05:55:18;;;;;;;14.15;8.98;;;;;;;4.70;100.00;97845.00;6110330;19;20010;-71
2024/03/15 05:57:18;;;;;;;14.55;8.80;;;;;;;4.70;100.00;97834.03;6109046;19;20010;-71
2024/03/15 05:59:18;;;;;;;13.13;8.25;;;;;;;4.74;100.00;97843.97;6109446;19;20097;-71
2024/03/15 06:01:18;;;;;;;14.82;9.57;;;;;;;4.80;100.00;97841.75;6109717;19;20027;-71
2024/03/15 06:03:20;;;;;;;18.30;10.43;;;;;;;4.90;100.00;97841.19;6106281;19;20014;-71
2024/03/15 06:05:22;;;;;;;16.13;9.75;;;;;;;4.91;100.00;97844.75;6109545;19;20038;-71
2024/03/15 06:07:22;;;;;;;20.95;10.98;;;;;;;4.95;100.00;97849.13;6109166;19;20014;-71
2024/03/15 06:09:23;;;;;;;19.13;9.55;;;;;;;4.98;100.00;97847.66;6107897;19;20236;-71
2024/03/15 06:11:23;;;;;;;16.92;9.48;;;;;;;5.00;100.00;97853.56;6109894;19;20098;-71
2024/03/15 06:13:25;;;;;;;15.88;9.18;;;;;;;4.99;100.00;97847.28;6099093;19;20003;-71
2024/03/15 06:15:25;;;;;;;12.88;8.50;;;;;;;5.00;100.00;97848.88;6110971;19;20014;-71
2024/03/15 06:17:26;;;;;;;17.83;10.40;;;;;;;5.08;100.00;97855.31;6110399;19;20422;-71
2024/03/15 06:19:26;;;;;;;15.93;9.77;;;;;;;5.06;100.00;97852.16;6109800;19;20487;-71
2024/03/15 06:21:27;;;;;;;16.52;9.40;;;;;;;5.07;100.00;97853.72;6109797;19;20444;-71
2024/03/15 06:23:27;;;;;;;16.75;9.63;;;;;;;5.10;100.00;97855.75;6108872;19;20009;-71
2024/03/15 06:25:29;;;;;;;17.88;10.30;;;;;;;5.18;100.00;97857.50;6109643;19;19998;-71
2024/03/15 06:27:29;;;;;;;29.25;14.85;;;;;;;5.22;100.00;97860.34;6110266;19;20488;-71
2024/03/15 06:29:33;;;;;;;83.10;40.05;;;;;;;5.27;100.00;97855.34;6108761;19;20010;-71
2024/03/15 06:31:34;;;;;;;88.82;41.40;;;;;;;5.30;100.00;97856.59;6110562;19;20361;-71
2024/03/15 06:33:35;;;;;;;60.00;29.52;;;;;;;5.33;100.00;97859.41;6106636;19;20010;-71
2024/03/15 06:35:35;;;;;;;36.58;19.73;;;;;;;5.35;100.00;97859.06;6110344;19;20455;-71
2024/03/15 06:37:39;;;;;;;27.58;14.02;;;;;;;5.41;100.00;97868.59;6108193;19;20242;-71
2024/03/15 06:40:01;;;;;;;24.45;14.15;;;;;;;5.42;100.00;97864.69;6107259;19;20003;-71
2024/03/15 06:42:09;;;;;;;26.42;15.45;;;;;;;5.39;100.00;97857.19;6105019;19;20020;-71
2024/03/15 06:46:24;;;;;;;29.98;16.15;;;;;;;5.44;100.00;97861.59;6106956;19;20450;-70
2024/03/15 06:48:33;;;;;;;26.77;14.68;;;;;;;5.48;100.00;97860.53;6105261;19;20024;-71
2024/03/15 06:53:01;;;;;;;23.88;13.40;;;;;;;5.51;100.00;97846.06;6102634;19;20003;-71
2024/03/15 06:55:04;;;;;;;21.63;13.15;;;;;;;5.55;100.00;97854.41;6109833;19;20021;-71
2024/03/15 06:57:04;;;;;;;23.40;13.55;;;;;;;5.59;100.00;97850.56;6109444;19;20010;-71
2024/03/15 06:59:05;;;;;;;25.80;14.13;;;;;;;5.68;100.00;97861.31;6110502;19;20380;-71
2024/03/15 07:01:05;;;;;;;22.08;14.52;;;;;;;5.78;100.00;97863.47;6108974;19;20006;-71
2024/03/15 07:03:07;;;;;;;27.92;14.52;;;;;;;5.85;100.00;97860.09;6107741;19;20011;-71
2024/03/15 07:05:08;;;;;;;23.35;13.63;;;;;;;5.89;100.00;97863.72;6109056;19;20083;-71
2024/03/15 07:07:09;;;;;;;23.02;13.55;;;;;;;5.93;100.00;97861.06;6109002;19;20017;-71
2024/03/15 07:09:14;;;;;;;22.00;12.98;;;;;;;5.96;100.00;97854.84;6109160;19;20006;-71
2024/03/15 07:11:16;;;;;;;24.00;13.90;;;;;;;6.03;100.00;97866.75;6107481;19;20027;-71
2024/03/15 07:13:16;;;;;;;22.75;13.25;;;;;;;6.06;100.00;97866.03;6106542;19;20636;-71
2024/03/15 07:15:18;;;;;;;32.47;17.35;;;;;;;6.14;100.00;97864.22;6100115;19;20003;-71
2024/03/15 07:17:18;;;;;;;36.60;17.65;;;;;;;6.22;100.00;97856.94;6102204;19;20462;-71
2024/03/15 07:19:21;;;;;;;32.10;17.55;;;;;;;6.35;100.00;97859.13;6102813;19;20021;-71
2024/03/15 07:21:24;;;;;;;28.90;17.17;;;;;;;6.35;100.00;97852.84;6097839;19;20010;-71
2024/03/15 07:23:27;;;;;;;24.23;13.55;;;;;;;6.40;100.00;97855.28;6100020;19;20011;-71
2024/03/15 07:25:27;;;;;;;22.65;13.80;;;;;;;6.44;100.00;97859.66;6100800;19;20011;-71
2024/03/15 07:27:28;;;;;;;28.60;14.07;;;;;;;6.48;100.00;97854.25;6100610;19;20015;-71
2024/03/15 07:29:29;;;;;;;19.88;12.63;;;;;;;6.48;100.00;97857.78;6100657;19;20011;-71
2024/03/15 07:31:30;;;;;;;21.17;13.13;;;;;;;6.47;100.00;97864.47;6099882;19;20013;-71
2024/03/15 07:33:30;;;;;;;22.13;13.05;;;;;;;6.51;100.00;97863.72;6096017;19;20125;-71
2024/03/15 07:35:32;;;;;;;21.85;13.18;;;;;;;6.57;100.00;97862.25;6099466;19;20021;-71
2024/03/15 07:37:32;;;;;;;25.75;12.60;;;;;;;6.66;100.00;97863.59;6099070;19;20034;-71
2024/03/15 07:39:32;;;;;;;23.15;13.32;;;;;;;6.72;100.00;97858.59;6099320;19;20368;-71
2024/03/15 07:41:34;;;;;;;20.00;12.43;;;;;;;6.80;100.00;97860.31;6098437;19;20024;-71
2024/03/15 07:43:34;;;;;;;21.67;12.98;;;;;;;6.91;100.00;97863.22;6096481;19;20113;-71
2024/03/15 07:45:35;;;;;;;20.55;11.93;;;;;;;7.06;100.00;97869.75;6098166;19;20379;-71
2024/03/15 07:47:35;;;;;;;24.23;13.75;;;;;;;7.24;100.00;97873.53;6098017;19;20411;-71
2024/03/15 07:49:37;;;;;;;18.67;13.00;;;;;;;7.36;100.00;97872.53;6098192;19;20002;-71
2024/03/15 07:51:38;;;;;;;20.98;13.05;;;;;;;7.46;100.00;97877.41;6100750;19;20342;-71
2024/03/15 07:53:38;;;;;;;20.05;13.15;;;;;;;7.52;100.00;97875.91;6100256;19;20019;-71
2024/03/15 07:55:39;;;;;;;20.95;12.77;;;;;;;7.68;100.00;97867.47;6100865;19;20003;-71
2024/03/15 07:57:40;;;;;;;21.55;13.25;;;;;;;7.84;100.00;97873.56;6101123;19;20402;-71
2024/03/15 07:59:40;;;;;;;28.90;14.90;;;;;;;7.94;100.00;97869.34;6101664;19;20017;-71
2024/03/15 08:01:43;;;;;;;21.27;11.23;;;;;;;8.07;100.00;97873.47;6101404;19;20006;-71
2024/03/15 08:03:45;;;;;;;21.02;11.02;;;;;;;8.22;100.00;97866.94;6100103;19;20030;-71
2024/03/15 08:05:48;;;;;;;15.40;9.27;;;;;;;8.38;100.00;97875.03;6100714;19;20317;-71
2024/03/15 08:07:49;;;;;;;11.05;6.45;;;;;;;8.54;100.00;97866.53;6101081;19;20331;-71
2024/03/15 08:09:49;;;;;;;12.27;7.97;;;;;;;8.71;100.00;97868.66;6100098;19;20109;-71
2024/03/15 08:11:49;;;;;;;9.32;6.60;;;;;;;8.87;100.00;97865.63;6099857;19;20011;-71
2024/03/15 08:13:49;;;;;;;10.40;6.05;;;;;;;9.25;100.00;97861.56;6101070;19;20467;-71
2024/03/15 08:16:18;;;;;;;8.13;5.93;;;;;;;9.55;100.00;97875.97;6109247;19;20506;-71
2024/03/15 08:18:18;;;;;;;12.82;7.15;;;;;;;9.83;100.00;97866.25;6006273;19;2006529;-71
2024/03/15 08:20:18;;;;;;;10.95;6.43;;;;;;;9.99;100.00;97880.53;6106833;19;20011;-71
2024/03/15 08:22:20;;;;;;;9.68;5.97;;;;;;;10.05;100.00;97869.91;6105811;19;20010;-71
2024/03/15 08:24:20;;;;;;;11.43;6.30;;;;;;;10.01;100.00;97869.06;6108479;19;20248;-71
2024/03/15 08:26:21;;;;;;;6.93;4.95;;;;;;;10.07;100.00;97870.28;6107498;19;20368;-71
2024/03/15 08:28:21;;;;;;;6.97;5.05;;;;;;;10.13;100.00;97864.00;6107811;19;20029;-71
2024/03/15 08:30:23;;;;;;;8.73;4.82;;;;;;;10.30;100.00;97865.25;6108025;19;20471;-71
2024/03/15 08:32:24;;;;;;;6.43;4.23;;;;;;;10.44;100.00;97867.28;6107200;19;20031;-72
2024/03/15 08:34:26;;;;;;;5.72;4.30;;;;;;;10.65;100.00;97864.53;6112111;19;20350;-71
2024/03/15 08:36:27;;;;;;;5.95;4.00;;;;;;;10.88;100.00;97866.16;6113307;19;20127;-71
2024/03/15 08:38:27;;;;;;;5.90;4.43;;;;;;;11.10;100.00;97862.19;6112979;19;20006;-71
2024/03/15 08:40:27;;;;;;;6.80;4.63;;;;;;;11.18;100.00;97868.53;6112895;19;20024;-71
2024/03/15 08:42:29;;;;;;;5.28;3.95;;;;;;;11.29;100.00;97872.06;6111148;19;20022;-71
2024/03/15 08:44:31;;;;;;;6.90;4.47;;;;;;;11.35;100.00;97867.72;6112593;19;20010;-71
2024/03/15 08:46:32;;;;;;;6.68;3.92;;;;;;;11.48;100.00;97879.16;6113251;19;20035;-71
2024/03/15 08:48:32;;;;;;;6.13;3.90;;;;;;;11.56;100.00;97871.63;6112201;19;20010;-71
2024/03/15 08:50:33;;;;;;;7.07;4.10;;;;;;;11.56;100.00;97880.72;6112916;19;20026;-71
2024/03/15 08:52:33;;;;;;;4.15;3.35;;;;;;;11.65;100.00;97877.53;6110782;19;20011;-71
2024/03/15 08:54:34;;;;;;;5.85;4.18;;;;;;;11.68;100.00;97872.00;6113053;19;20007;-71
2024/03/15 08:56:34;;;;;;;7.88;3.97;;;;;;;11.77;100.00;97877.13;6111475;19;20188;-71
2024/03/15 08:58:35;;;;;;;6.32;3.53;;;;;;;11.93;100.00;97877.50;6112504;19;20441;-71
2024/03/15 09:00:35;;;;;;;8.60;4.13;;;;;;;12.05;100.00;97895.66;6113022;19;20007;-71
2024/03/15 09:02:36;;;;;;;6.82;4.35;;;;;;;12.13;100.00;97877.81;6109922;19;20014;-71
2024/03/15 09:04:36;;;;;;;4.57;3.70;;;;;;;12.31;100.00;97892.38;6112951;19;20006;-71
2024/03/15 09:06:37;;;;;;;5.45;3.80;;;;;;;12.36;100.00;97886.41;6112314;19;20007;-71
2024/03/15 09:08:38;;;;;;;4.70;3.92;;;;;;;12.57;100.00;97893.81;6112368;19;20554;-71
2024/03/15 09:10:40;;;;;;;11.18;4.18;;;;;;;12.69;100.00;97897.34;6112739;19;20007;-71
2024/03/15 09:12:41;;;;;;;4.53;3.60;;;;;;;12.67;100.00;97894.97;6111995;19;20062;-71
2024/03/15 09:14:43;;;;;;;6.22;4.03;;;;;;;12.70;100.00;97905.25;6113300;19;21498;-71
2024/03/15 09:16:50;;;;;;;6.55;4.05;;;;;;;12.75;100.00;97893.72;6113590;19;20015;-71
2024/03/15 09:18:52;;;;;;;6.30;3.65;;;;;;;12.81;100.00;97894.88;6112983;19;20039;-71
2024/03/15 09:20:54;;;;;;;6.90;4.38;;;;;;;12.88;100.00;97894.03;6112561;19;20371;-71
2024/03/15 09:22:55;;;;;;;6.03;4.40;;;;;;;12.83;100.00;97900.81;6111198;19;20083;-71
2024/03/15 09:24:55;;;;;;;5.85;3.97;;;;;;;12.87;100.00;97893.25;6112462;19;20006;-71
2024/03/15 09:26:55;;;;;;;7.47;4.32;;;;;;;12.93;100.00;97901.94;6112919;19;20011;-71